createdAt,value
2023-04-09T00:01:47.383Z,64.75
2023-04-09T00:04:14.331Z,60.65
2023-04-09T00:06:42.263Z,68.65
2023-04-09T00:12:08.392Z,66.18
2023-04-09T00:14:36.219Z,69.18
2023-04-09T00:17:13.296Z,57.35
2023-04-09T00:19:40.387Z,62.60
2023-04-09T00:22:08.286Z,60.17
2023-04-09T00:24:41.304Z,59.05
2023-04-09T00:27:08.254Z,62.88
2023-04-09T00:29:36.708Z,67.82
2023-04-09T00:32:04.407Z,56.47
2023-04-09T00:34:32.338Z,61.67
2023-04-09T00:37:01.065Z,64.82
2023-04-09T00:39:28.380Z,61.67
2023-04-09T00:42:02.787Z,63.42
2023-04-09T00:44:30.412Z,62.05
2023-04-09T00:47:02.249Z,56.97
2023-04-09T00:49:30.847Z,60.35
2023-04-09T00:52:23.783Z,61.13
2023-04-09T00:54:57.862Z,68.45
2023-04-09T00:57:26.255Z,58.17
2023-04-09T00:59:54.510Z,59.85
2023-04-09T01:02:48.101Z,61.72
2023-04-09T01:05:16.325Z,62.88
2023-04-09T01:08:17.071Z,58.75
2023-04-09T01:11:07.049Z,53.65
2023-04-09T01:14:01.294Z,58.22
2023-04-09T01:16:34.261Z,52.15
2023-04-09T01:19:11.808Z,63.50
2023-04-09T01:24:43.201Z,62.67
2023-04-09T01:27:15.182Z,68.70
2023-04-09T01:30:29.851Z,65.25
2023-04-09T01:32:59.020Z,69.90
2023-04-09T01:35:53.889Z,75.18
2023-04-09T01:38:23.773Z,76.03
2023-04-09T01:40:54.468Z,79.25
2023-04-09T01:43:28.395Z,73.68
2023-04-09T01:45:57.282Z,80.68
2023-04-09T01:48:24.966Z,70.55
2023-04-09T01:50:57.469Z,72.70
2023-04-09T01:53:29.444Z,64.95
2023-04-09T01:55:56.794Z,69.82
2023-04-09T01:58:30.256Z,66.47
2023-04-09T02:01:08.956Z,78.53
2023-04-09T02:04:05.175Z,76.78
2023-04-09T02:06:32.530Z,62.78
2023-04-09T02:09:01.775Z,66.80
2023-04-09T02:11:34.102Z,72.53
2023-04-09T02:14:08.635Z,66.47
2023-04-09T02:16:36.926Z,65.30
2023-04-09T02:19:04.341Z,69.50
2023-04-09T02:21:32.315Z,62.75
2023-04-09T02:24:00.409Z,74.60
2023-04-09T02:26:54.278Z,69.15
2023-04-09T02:29:22.226Z,64.65
2023-04-09T02:31:53.046Z,78.13
2023-04-09T02:34:20.675Z,67.75
2023-04-09T02:36:50.536Z,65.50
2023-04-09T02:39:18.443Z,69.65
2023-04-09T02:48:00.230Z,56.35
2023-04-09T02:50:29.483Z,62.22
2023-04-09T02:52:58.268Z,68.07
2023-04-09T02:55:26.226Z,67.70
2023-04-09T02:57:58.250Z,70.40
2023-04-09T03:00:26.261Z,74.25
2023-04-09T03:03:03.465Z,63.67
2023-04-09T03:05:30.532Z,69.75
2023-04-09T03:07:58.274Z,66.05
2023-04-09T03:10:26.245Z,61.80
2023-04-09T03:15:51.328Z,69.68
2023-04-09T03:21:11.250Z,61.63
2023-04-09T03:23:48.272Z,62.03
2023-04-09T03:26:42.248Z,61.80
2023-04-09T03:29:16.291Z,62.63
2023-04-09T03:31:49.253Z,62.47
2023-04-09T03:34:16.333Z,58.50
2023-04-09T03:36:44.272Z,66.13
2023-04-09T03:39:18.313Z,64.38
2023-04-09T03:41:46.561Z,63.80
2023-04-09T03:44:16.314Z,64.60
2023-04-09T03:46:58.476Z,62.67
2023-04-09T03:49:26.304Z,68.82
2023-04-09T03:51:56.258Z,60.13
2023-04-09T03:54:29.778Z,64.00
2023-04-09T03:56:58.256Z,67.63
2023-04-09T03:59:31.242Z,66.38
2023-04-09T04:01:58.310Z,80.82
2023-04-09T04:04:26.306Z,60.63
2023-04-09T04:06:58.376Z,69.38
2023-04-09T04:09:38.408Z,65.00
2023-04-09T04:12:10.266Z,78.38
2023-04-09T04:14:52.258Z,76.28
2023-04-09T04:17:32.240Z,71.93
2023-04-09T04:20:02.332Z,78.32
2023-04-09T04:22:34.873Z,73.65
2023-04-09T04:25:28.512Z,75.57
2023-04-09T04:27:56.298Z,73.72
2023-04-09T04:30:30.365Z,79.63
2023-04-09T04:33:08.184Z,73.95
2023-04-09T04:36:13.110Z,82.47
2023-04-09T04:41:58.331Z,76.03
2023-04-09T04:44:28.276Z,78.55
2023-04-09T04:47:22.340Z,78.88
2023-04-09T04:52:59.220Z,72.38
2023-04-09T04:55:32.178Z,69.70
2023-04-09T04:58:02.718Z,75.03
2023-04-09T05:00:38.195Z,74.53
2023-04-09T05:03:30.318Z,77.78
2023-04-09T05:06:18.176Z,69.75
2023-04-09T05:09:10.360Z,75.32
2023-04-09T05:11:46.231Z,73.03
2023-04-09T05:15:03.199Z,79.50
2023-04-09T05:17:32.272Z,71.07
2023-04-09T05:20:00.213Z,71.85
2023-04-09T05:22:36.343Z,69.72
2023-04-09T05:25:30.331Z,68.97
2023-04-09T05:28:05.399Z,65.63
2023-04-09T05:30:34.322Z,63.38
2023-04-09T05:35:56.292Z,75.32
2023-04-09T05:38:24.250Z,81.07
2023-04-09T05:40:56.573Z,74.63
2023-04-09T05:43:24.349Z,72.15
2023-04-09T05:45:57.486Z,75.85
2023-04-09T05:48:26.271Z,68.10
2023-04-09T05:53:46.307Z,64.95
2023-04-09T05:56:15.756Z,78.65
2023-04-09T06:01:44.300Z,70.85
2023-04-09T06:04:16.360Z,67.35
2023-04-09T06:06:44.224Z,77.35
2023-04-09T06:12:04.296Z,72.90
2023-04-09T06:14:33.132Z,72.20
2023-04-09T06:17:00.450Z,77.88
2023-04-09T06:19:28.284Z,83.47
2023-04-09T06:21:56.385Z,71.47
2023-04-09T06:24:28.243Z,66.85
2023-04-09T06:27:01.252Z,72.72
2023-04-09T06:29:28.331Z,80.20
2023-04-09T06:31:56.356Z,70.00
2023-04-09T06:37:16.262Z,75.45
2023-04-09T06:40:00.490Z,66.07
2023-04-09T06:42:28.238Z,67.65
2023-04-09T06:45:08.827Z,65.10
2023-04-09T06:47:36.712Z,71.80
2023-04-09T06:50:10.725Z,73.78
2023-04-09T06:53:03.127Z,65.50
2023-04-09T06:55:56.637Z,81.93
2023-04-09T06:58:24.348Z,55.33
2023-04-09T07:00:52.278Z,64.40
2023-04-09T07:03:20.465Z,72.68
2023-04-09T07:09:11.754Z,66.30
2023-04-09T07:11:40.302Z,64.80
2023-04-09T07:17:00.236Z,56.58
2023-04-09T07:19:28.240Z,68.68
2023-04-09T07:21:56.253Z,71.35
2023-04-09T07:24:24.252Z,75.45
2023-04-09T07:26:52.665Z,66.85
2023-04-09T07:30:11.638Z,59.13
2023-04-09T07:32:38.590Z,61.33
2023-04-09T07:35:07.926Z,58.33
2023-04-09T07:37:40.309Z,61.97
2023-04-09T07:40:08.855Z,59.67
2023-04-09T07:42:42.536Z,61.95
2023-04-09T07:45:36.270Z,63.60
2023-04-09T07:48:04.335Z,58.55
2023-04-09T07:50:32.253Z,56.22
2023-04-09T07:53:00.376Z,57.70
2023-04-09T07:55:28.605Z,52.28
2023-04-09T07:58:00.237Z,57.85
2023-04-09T08:00:28.226Z,60.30
2023-04-09T08:03:05.777Z,54.97
2023-04-09T08:05:36.096Z,61.25
2023-04-09T08:11:00.215Z,50.95
2023-04-09T08:13:28.233Z,53.63
2023-04-09T08:18:48.230Z,54.38
2023-04-09T08:21:20.535Z,53.50
2023-04-09T08:23:48.345Z,48.28
2023-04-09T08:26:16.267Z,47.50
2023-04-09T08:28:44.230Z,54.50
2023-04-09T08:31:12.226Z,55.97
2023-04-09T08:33:40.485Z,54.83
2023-04-09T08:36:09.363Z,49.67
2023-04-09T08:38:36.244Z,46.20
2023-04-09T08:41:05.605Z,50.33
2023-04-09T08:43:47.308Z,47.85
2023-04-09T08:46:28.219Z,50.15
2023-04-09T08:48:57.118Z,50.88
2023-04-09T08:51:31.468Z,44.10
2023-04-09T08:54:02.256Z,41.15
2023-04-09T08:56:32.521Z,44.53
2023-04-09T08:59:00.258Z,38.70
2023-04-09T09:01:37.546Z,42.63
2023-04-09T09:04:06.709Z,41.20
2023-04-09T09:06:39.497Z,43.10
2023-04-09T09:09:11.403Z,42.30
2023-04-09T09:11:48.551Z,33.97
2023-04-09T09:14:42.283Z,39.03
2023-04-09T09:17:10.621Z,32.20
2023-04-09T09:19:38.237Z,37.30
2023-04-09T09:22:12.516Z,30.27
2023-04-09T09:24:51.170Z,38.33
2023-04-09T09:27:36.479Z,34.70
2023-04-09T09:30:05.678Z,31.45
2023-04-09T09:35:33.543Z,35.75
2023-04-09T09:38:06.264Z,35.58
2023-04-09T09:41:16.113Z,31.50
2023-04-09T09:43:44.302Z,29.92
2023-04-09T09:46:17.689Z,34.28
2023-04-09T09:48:46.574Z,33.38
2023-04-09T09:51:15.370Z,32.00
2023-04-09T09:53:49.746Z,31.35
2023-04-09T09:56:25.101Z,30.77
2023-04-09T09:59:15.974Z,36.72
2023-04-09T10:04:38.553Z,31.30
2023-04-09T10:07:07.566Z,30.52
2023-04-09T10:09:37.669Z,30.42
2023-04-09T10:12:35.293Z,28.77
2023-04-09T10:15:04.986Z,34.42
2023-04-09T10:17:40.952Z,32.47
2023-04-09T10:20:14.257Z,31.00
2023-04-09T10:22:45.385Z,28.63
2023-04-09T10:25:17.531Z,26.55
2023-04-09T10:27:49.135Z,27.17
2023-04-09T10:30:35.790Z,27.40
2023-04-09T10:33:18.321Z,28.00
2023-04-09T10:35:49.826Z,27.05
2023-04-09T10:38:41.010Z,29.13
2023-04-09T10:41:34.368Z,32.30
2023-04-09T10:44:06.522Z,28.23
2023-04-09T10:46:42.201Z,30.40
2023-04-09T10:52:04.611Z,23.60
2023-04-09T10:54:35.389Z,31.20
2023-04-09T10:57:08.807Z,30.52
2023-04-09T10:59:46.327Z,28.80
2023-04-09T11:05:32.902Z,27.52
2023-04-09T11:10:59.419Z,25.58
2023-04-09T11:13:26.359Z,26.83
2023-04-09T11:16:03.203Z,30.08
2023-04-09T11:18:57.336Z,24.33
2023-04-09T11:21:31.408Z,33.85
2023-04-09T11:23:58.285Z,32.65
2023-04-09T11:26:35.948Z,27.33
2023-04-09T11:29:15.474Z,27.13
2023-04-09T11:31:44.990Z,26.45
2023-04-09T11:34:12.571Z,23.05
2023-04-09T11:37:14.086Z,27.00
2023-04-09T11:39:44.843Z,30.55
2023-04-09T11:45:14.855Z,29.10
2023-04-09T11:47:43.822Z,29.98
2023-04-09T11:50:13.993Z,29.92
2023-04-09T11:53:42.818Z,31.30
2023-04-09T11:56:10.397Z,25.85
2023-04-09T11:58:47.598Z,31.75
2023-04-09T12:01:14.926Z,30.95
2023-04-09T12:03:42.432Z,27.75
2023-04-09T12:06:10.870Z,27.42
2023-04-09T12:08:39.272Z,29.67
2023-04-09T12:11:13.431Z,30.75
2023-04-09T12:13:43.219Z,28.70
2023-04-09T12:19:33.388Z,28.60
2023-04-09T12:22:00.230Z,29.00
2023-04-09T12:24:28.871Z,28.75
2023-04-09T12:26:57.302Z,26.65
2023-04-09T12:29:25.881Z,25.55
2023-04-09T12:31:59.491Z,23.70
2023-04-09T12:34:27.442Z,28.13
2023-04-09T12:37:25.488Z,29.00
2023-04-09T12:39:52.260Z,28.45
2023-04-09T12:45:36.702Z,27.40
2023-04-09T12:54:24.331Z,27.92
2023-04-09T12:56:57.266Z,30.88
2023-04-09T13:02:36.635Z,33.05
2023-04-09T13:06:04.806Z,25.95
2023-04-09T13:08:38.195Z,22.60
2023-04-09T13:11:21.472Z,26.30
2023-04-09T13:14:59.723Z,28.77
2023-04-09T13:17:56.089Z,25.45
2023-04-09T13:23:40.394Z,30.17
2023-04-09T13:26:13.288Z,24.30
2023-04-09T13:28:40.231Z,27.15
2023-04-09T13:31:13.340Z,25.65
2023-04-09T13:33:45.778Z,25.75
2023-04-09T13:36:19.238Z,28.02
2023-04-09T13:38:46.386Z,27.60
2023-04-09T13:41:20.234Z,25.73
2023-04-09T13:43:48.420Z,27.75
2023-04-09T13:46:21.310Z,28.52
2023-04-09T13:48:48.247Z,27.90
2023-04-09T13:51:16.296Z,25.38
2023-04-09T13:54:13.868Z,30.15
2023-04-09T13:56:42.401Z,23.92
2023-04-09T13:59:11.497Z,27.20
2023-04-09T14:01:44.421Z,25.52
2023-04-09T14:04:12.485Z,26.17
2023-04-09T14:06:45.354Z,26.27
2023-04-09T14:09:12.553Z,23.80
2023-04-09T14:12:05.844Z,26.55
2023-04-09T14:14:39.944Z,28.38
2023-04-09T14:17:08.395Z,26.23
2023-04-09T14:19:36.289Z,28.05
2023-04-09T14:22:04.467Z,25.75
2023-04-09T14:25:01.301Z,27.92
2023-04-09T14:27:28.255Z,24.98
2023-04-09T14:30:01.254Z,23.92
2023-04-09T14:32:28.324Z,24.15
2023-04-09T14:35:01.343Z,26.52
2023-04-09T14:37:28.251Z,29.80
2023-04-09T14:39:56.397Z,25.92
2023-04-09T14:45:16.451Z,25.27
2023-04-09T14:47:48.299Z,28.20
2023-04-09T14:50:16.317Z,23.05
2023-04-09T14:55:38.737Z,25.40
2023-04-09T14:58:12.268Z,26.00
2023-04-09T15:00:41.201Z,28.05
2023-04-09T15:03:34.956Z,25.15
2023-04-09T15:06:02.243Z,28.40
2023-04-09T15:08:30.616Z,20.08
2023-04-09T15:10:58.270Z,23.65
2023-04-09T15:13:26.259Z,32.13
2023-04-09T15:15:54.491Z,26.13
2023-04-09T15:18:22.351Z,29.00
2023-04-09T15:20:50.690Z,24.40
2023-04-09T15:23:18.250Z,27.58
2023-04-09T15:25:51.726Z,27.40
2023-04-09T15:28:24.256Z,28.95
2023-04-09T15:30:54.830Z,28.50
2023-04-09T15:36:20.332Z,27.38
2023-04-09T15:38:48.216Z,26.13
2023-04-09T15:44:10.439Z,30.33
2023-04-09T15:46:38.326Z,26.70
2023-04-09T15:49:06.339Z,25.45
2023-04-09T15:51:34.208Z,27.77
2023-04-09T15:54:02.532Z,25.75
2023-04-09T15:56:35.266Z,26.98
2023-04-09T15:59:05.111Z,23.27
2023-04-09T16:01:32.902Z,22.75
2023-04-09T16:04:00.338Z,26.77
2023-04-09T16:06:28.406Z,26.48
2023-04-09T16:09:01.096Z,25.30
2023-04-09T16:11:28.349Z,29.48
2023-04-09T16:14:00.531Z,30.52
2023-04-09T16:16:28.276Z,26.73
2023-04-09T16:18:56.391Z,23.35
2023-04-09T16:21:29.012Z,29.50
2023-04-09T16:23:56.384Z,27.63
2023-04-09T16:26:24.257Z,30.38
2023-04-09T16:31:44.388Z,28.92
2023-04-09T16:34:12.280Z,33.70
2023-04-09T16:36:46.540Z,29.00
2023-04-09T16:39:15.442Z,34.47
2023-04-09T16:41:43.580Z,25.13
2023-04-09T16:44:10.510Z,35.55
2023-04-09T16:46:38.256Z,30.83
2023-04-09T16:49:06.247Z,32.45
2023-04-09T16:51:59.245Z,33.58
2023-04-09T16:54:31.327Z,29.52
2023-04-09T16:56:58.620Z,29.17
2023-04-09T16:59:26.787Z,33.97
2023-04-09T17:02:00.507Z,31.65
2023-04-09T17:04:29.043Z,28.67
2023-04-09T17:06:56.273Z,30.90
2023-04-09T17:09:25.790Z,31.90
2023-04-09T17:11:54.351Z,31.20
2023-04-09T17:14:23.180Z,32.30
2023-04-09T17:16:53.293Z,28.27
2023-04-09T17:19:26.701Z,33.35
2023-04-09T17:22:20.184Z,28.23
2023-04-09T17:24:48.680Z,30.83
2023-04-09T17:27:16.875Z,36.80
2023-04-09T17:29:45.167Z,32.80
2023-04-09T17:32:12.928Z,30.50
2023-04-09T17:34:58.056Z,34.47
2023-04-09T17:37:31.284Z,35.88
2023-04-09T17:42:50.463Z,33.53
2023-04-09T17:45:18.250Z,36.35
2023-04-09T17:47:51.213Z,33.65
2023-04-09T17:50:18.381Z,33.97
2023-04-09T17:52:46.846Z,30.92
2023-04-09T17:55:19.893Z,30.90
2023-04-09T17:57:51.505Z,39.20
2023-04-09T18:03:48.443Z,32.60
2023-04-09T18:06:24.593Z,37.88
2023-04-09T18:09:30.441Z,33.33
2023-04-09T18:12:00.292Z,33.40
2023-04-09T18:14:39.216Z,35.17
2023-04-09T18:17:08.337Z,36.58
2023-04-09T18:19:41.323Z,29.13
2023-04-09T18:22:08.536Z,37.83
2023-04-09T18:24:42.507Z,32.70
2023-04-09T18:27:10.272Z,38.00
2023-04-09T18:29:38.500Z,37.65
2023-04-09T18:32:08.228Z,30.52
2023-04-09T18:40:20.811Z,34.35
2023-04-09T18:42:52.358Z,31.08
2023-04-09T18:45:24.412Z,35.45
2023-04-09T18:47:52.366Z,32.88
2023-04-09T18:50:20.385Z,31.90
2023-04-09T18:52:48.561Z,31.42
2023-04-09T18:55:20.278Z,28.25
2023-04-09T18:57:48.241Z,27.98
2023-04-09T19:00:16.445Z,32.30
2023-04-09T19:02:44.503Z,33.83
2023-04-09T19:05:38.845Z,37.63
2023-04-09T19:08:15.881Z,33.70
2023-04-09T19:13:40.514Z,30.58
2023-04-09T19:21:56.576Z,33.28
2023-04-09T19:24:28.415Z,32.10
2023-04-09T19:26:56.602Z,36.88
2023-04-09T19:29:24.577Z,31.75
2023-04-09T19:31:57.431Z,36.10
2023-04-09T19:34:28.388Z,33.30
2023-04-09T19:37:00.816Z,33.95
2023-04-09T19:39:28.301Z,35.17
2023-04-09T19:41:59.461Z,30.42
2023-04-09T19:44:26.335Z,32.90
2023-04-09T19:49:46.353Z,28.77
2023-04-09T19:52:17.259Z,34.72
2023-04-09T19:54:54.222Z,33.45
2023-04-09T19:57:26.517Z,30.38
2023-04-09T20:00:06.384Z,34.03
2023-04-09T20:02:39.896Z,37.85
2023-04-09T20:05:21.180Z,39.90
2023-04-09T20:07:49.270Z,36.70
2023-04-09T20:10:19.945Z,37.13
2023-04-09T20:12:49.984Z,38.05
2023-04-09T20:15:27.127Z,33.88
2023-04-09T20:17:54.252Z,31.83
2023-04-09T20:20:24.597Z,30.35
2023-04-09T20:22:56.653Z,31.02
2023-04-09T20:25:29.794Z,28.85
2023-04-09T20:28:03.542Z,30.98
2023-04-09T20:33:50.689Z,29.67
2023-04-09T20:36:24.547Z,23.52
2023-04-09T20:39:05.706Z,32.67
2023-04-09T20:41:43.549Z,32.33
2023-04-09T20:44:13.227Z,32.50
2023-04-09T20:46:53.724Z,30.95
2023-04-09T20:49:22.599Z,32.15
2023-04-09T20:51:50.282Z,27.05
2023-04-09T20:54:24.901Z,34.50
2023-04-09T20:56:52.555Z,30.17
2023-04-09T20:59:46.366Z,29.65
2023-04-09T21:02:19.869Z,28.25
2023-04-09T21:04:53.245Z,31.60
2023-04-09T21:07:20.324Z,24.00
2023-04-09T21:09:48.908Z,30.85
2023-04-09T21:12:16.295Z,28.58
2023-04-09T21:14:44.392Z,30.38
2023-04-09T21:17:20.627Z,27.58
2023-04-09T21:19:49.338Z,29.80
2023-04-09T21:22:16.263Z,29.75
2023-04-09T21:24:44.296Z,27.92
2023-04-09T21:27:38.234Z,30.63
2023-04-09T21:33:01.014Z,24.27
2023-04-09T21:35:35.605Z,29.70
2023-04-09T21:38:03.107Z,26.65
2023-04-09T21:40:30.877Z,29.35
2023-04-09T21:42:59.030Z,28.83
2023-04-09T21:45:36.285Z,28.90
2023-04-09T21:48:04.315Z,24.60
2023-04-09T21:50:32.747Z,26.25
2023-04-09T21:53:00.604Z,25.00
2023-04-09T21:55:28.469Z,26.13
2023-04-09T21:58:08.142Z,22.77
2023-04-09T22:03:36.205Z,30.08
2023-04-09T22:06:30.979Z,27.27
2023-04-09T22:08:58.750Z,27.83
2023-04-09T22:11:31.490Z,27.30
2023-04-09T22:14:03.411Z,27.42
2023-04-09T22:16:36.292Z,25.35
2023-04-09T22:19:04.711Z,28.08
2023-04-09T22:21:32.961Z,30.50
2023-04-09T22:24:00.935Z,28.20
2023-04-09T22:29:20.288Z,26.98
2023-04-09T22:31:48.483Z,29.95
2023-04-09T22:34:21.236Z,25.48
2023-04-09T22:36:48.318Z,26.52
2023-04-09T22:39:16.752Z,27.15
2023-04-09T22:41:44.276Z,26.02
2023-04-09T22:44:41.869Z,27.48
2023-04-09T22:47:35.527Z,25.73
2023-04-09T22:50:02.812Z,24.17
2023-04-09T22:52:30.720Z,27.92
2023-04-09T22:54:58.427Z,27.65
2023-04-09T22:57:52.254Z,26.27
2023-04-09T23:00:20.640Z,30.23
2023-04-09T23:02:55.367Z,33.10
2023-04-09T23:05:22.357Z,27.67
2023-04-09T23:07:51.185Z,23.38
2023-04-09T23:10:18.396Z,31.30
2023-04-09T23:12:46.230Z,29.40
2023-04-09T23:15:21.657Z,29.70
2023-04-09T23:17:52.625Z,33.75
2023-04-09T23:20:26.366Z,25.48
2023-04-09T23:22:59.274Z,27.67
2023-04-09T23:25:26.345Z,28.80
2023-04-09T23:27:54.276Z,27.42
2023-04-09T23:30:23.619Z,32.65
2023-04-09T23:32:52.518Z,26.95
2023-04-09T23:35:20.752Z,24.98
2023-04-09T23:37:54.244Z,29.13
2023-04-09T23:40:22.418Z,28.48
2023-04-09T23:42:54.515Z,28.45
2023-04-09T23:45:23.716Z,25.02
2023-04-09T23:48:17.777Z,27.08
2023-04-09T23:50:52.684Z,24.23
2023-04-09T23:53:20.237Z,29.45
2023-04-09T23:55:50.035Z,23.27
2023-04-09T23:58:18.812Z,26.92
